createdAt,value
2023-01-11T00:02:22.293Z,7.73
2023-01-11T00:04:50.527Z,6.60
2023-01-11T00:07:18.537Z,6.30
2023-01-11T00:09:47.873Z,7.47
2023-01-11T00:12:15.789Z,4.30
2023-01-11T00:14:43.759Z,6.23
2023-01-11T00:17:12.864Z,5.60
2023-01-11T00:19:40.736Z,5.80
2023-01-11T00:22:09.131Z,7.53
2023-01-11T00:24:36.879Z,5.47
2023-01-11T00:27:04.817Z,5.37
2023-01-11T00:29:32.780Z,7.97
2023-01-11T00:32:00.513Z,7.13
2023-01-11T00:34:29.744Z,5.00
2023-01-11T00:36:57.602Z,6.60
2023-01-11T00:39:25.442Z,5.97
2023-01-11T00:42:10.792Z,8.37
2023-01-11T00:44:55.907Z,5.70
2023-01-11T00:47:41.579Z,5.70
2023-01-11T00:50:11.977Z,5.37
2023-01-11T00:55:08.715Z,3.97
2023-01-11T00:57:36.531Z,8.37
2023-01-11T01:00:05.182Z,6.97
2023-01-11T01:02:33.172Z,8.07
2023-01-11T01:05:00.937Z,6.40
2023-01-11T01:07:30.167Z,5.43
2023-01-11T01:09:58.103Z,5.87
2023-01-11T01:12:39.798Z,6.20
2023-01-11T01:15:08.615Z,5.03
2023-01-11T01:17:36.392Z,6.53
2023-01-11T01:20:04.677Z,7.27
2023-01-11T01:22:33.957Z,4.20
2023-01-11T01:25:01.725Z,4.87
2023-01-11T01:27:29.550Z,9.20
2023-01-11T01:29:57.646Z,4.17
2023-01-11T01:32:25.342Z,5.87
2023-01-11T01:34:53.146Z,5.27
2023-01-11T01:37:21.158Z,4.23
2023-01-11T01:39:50.369Z,4.90
2023-01-11T01:42:20.399Z,4.23
2023-01-11T01:45:00.330Z,7.47
2023-01-11T01:47:33.694Z,4.35
2023-01-11T01:50:06.076Z,4.30
2023-01-11T01:52:35.061Z,7.47
2023-01-11T01:55:08.872Z,6.27
2023-01-11T01:57:40.762Z,6.07
2023-01-11T02:00:10.905Z,5.80
2023-01-11T02:02:41.037Z,5.63
2023-01-11T02:05:10.672Z,5.55
2023-01-11T02:07:43.527Z,6.28
2023-01-11T02:10:16.283Z,6.90
2023-01-11T02:12:49.522Z,5.27
2023-01-11T02:15:19.170Z,7.03
2023-01-11T02:17:46.989Z,6.70
2023-01-11T02:20:47.230Z,7.93
2023-01-11T02:23:53.477Z,6.13
2023-01-11T02:26:55.642Z,7.57
2023-01-11T02:29:34.310Z,7.23
2023-01-11T02:32:15.260Z,5.73
2023-01-11T02:34:48.691Z,8.47
2023-01-11T02:37:29.012Z,8.97
2023-01-11T02:40:07.221Z,7.25
2023-01-11T02:43:03.147Z,6.63
2023-01-11T02:45:43.259Z,12.00
2023-01-11T02:48:20.465Z,8.27
2023-01-11T02:50:53.617Z,10.63
2023-01-11T02:53:28.955Z,7.87
2023-01-11T02:55:59.912Z,10.70
2023-01-11T02:58:30.989Z,7.83
2023-01-11T03:01:01.605Z,12.33
2023-01-11T03:03:29.629Z,6.63
2023-01-11T03:06:01.521Z,8.77
2023-01-11T03:08:44.791Z,11.33
2023-01-11T03:11:37.122Z,11.27
2023-01-11T03:14:14.419Z,11.93
2023-01-11T03:16:50.824Z,8.07
2023-01-11T03:19:32.208Z,10.63
2023-01-11T03:22:08.906Z,14.80
2023-01-11T03:24:44.205Z,10.37
2023-01-11T03:27:23.097Z,11.13
2023-01-11T03:30:00.712Z,11.30
2023-01-11T03:32:38.012Z,10.90
2023-01-11T03:35:14.297Z,10.00
2023-01-11T03:37:48.768Z,10.30
2023-01-11T03:40:22.052Z,11.47
2023-01-11T03:43:14.866Z,10.67
2023-01-11T03:45:47.939Z,13.90
2023-01-11T03:48:22.925Z,8.80
2023-01-11T03:50:53.629Z,15.33
2023-01-11T03:53:24.992Z,11.87
2023-01-11T03:55:56.753Z,7.07
2023-01-11T03:58:26.305Z,11.20
2023-01-11T04:00:55.866Z,10.82
2023-01-11T04:03:27.169Z,11.43
2023-01-11T04:05:59.794Z,14.30
2023-01-11T04:08:28.297Z,10.77
2023-01-11T04:10:56.853Z,12.97
2023-01-11T04:13:24.873Z,10.77
2023-01-11T04:15:53.969Z,11.10
2023-01-11T04:18:21.765Z,14.30
2023-01-11T04:20:51.237Z,10.80
2023-01-11T04:23:19.020Z,8.37
2023-01-11T04:25:47.599Z,8.60
2023-01-11T04:28:15.633Z,11.07
2023-01-11T04:30:43.410Z,9.90
2023-01-11T04:33:13.299Z,9.90
2023-01-11T04:35:41.458Z,12.95
2023-01-11T04:38:10.562Z,14.13
2023-01-11T04:40:38.626Z,11.33
2023-01-11T04:43:05.637Z,11.77
2023-01-11T04:45:34.139Z,8.63
2023-01-11T04:48:01.955Z,10.73
2023-01-11T04:50:29.962Z,11.00
2023-01-11T04:52:59.459Z,10.70
2023-01-11T04:55:28.696Z,10.30
2023-01-11T04:57:56.542Z,12.33
2023-01-11T05:00:25.503Z,11.53
2023-01-11T05:02:53.292Z,8.03
2023-01-11T05:05:21.146Z,10.87
2023-01-11T05:07:49.943Z,17.73
2023-01-11T05:10:20.783Z,11.13
2023-01-11T05:12:50.436Z,13.33
2023-01-11T05:15:18.239Z,7.77
2023-01-11T05:17:45.995Z,17.27
2023-01-11T05:20:14.509Z,14.50
2023-01-11T05:22:42.408Z,14.93
2023-01-11T05:25:10.688Z,10.40
2023-01-11T05:27:38.719Z,13.90
2023-01-11T05:30:09.859Z,14.50
2023-01-11T05:32:37.701Z,9.53
2023-01-11T05:35:06.133Z,14.00
2023-01-11T05:37:33.853Z,12.60
2023-01-11T05:40:01.793Z,18.83
2023-01-11T05:42:29.603Z,13.17
2023-01-11T05:45:14.723Z,10.60
2023-01-11T05:47:44.046Z,11.73
2023-01-11T05:50:12.147Z,14.40
2023-01-11T05:52:39.871Z,10.43
2023-01-11T05:55:09.157Z,8.50
2023-01-11T05:57:36.991Z,13.90
2023-01-11T06:00:05.246Z,10.27
2023-01-11T06:02:33.317Z,10.80
2023-01-11T06:05:02.524Z,9.97
2023-01-11T06:07:30.411Z,16.23
2023-01-11T06:09:58.397Z,12.87
2023-01-11T06:12:26.221Z,12.50
2023-01-11T06:14:53.987Z,9.47
2023-01-11T06:17:22.043Z,13.03
2023-01-11T06:19:49.785Z,14.30
2023-01-11T06:22:18.891Z,11.77
2023-01-11T06:24:46.867Z,13.77
2023-01-11T06:27:14.603Z,11.17
2023-01-11T06:29:42.433Z,8.77
2023-01-11T06:32:10.607Z,9.00
2023-01-11T06:34:38.349Z,8.47
2023-01-11T06:37:06.143Z,11.50
2023-01-11T06:39:35.458Z,10.70
2023-01-11T06:42:03.178Z,9.67
2023-01-11T06:44:30.898Z,11.10
2023-01-11T06:46:59.038Z,13.00
2023-01-11T06:49:27.150Z,11.93
2023-01-11T06:51:54.927Z,12.33
2023-01-11T06:54:25.754Z,13.70
2023-01-11T06:56:54.945Z,13.33
2023-01-11T06:59:22.649Z,12.60
2023-01-11T07:01:51.165Z,13.47
2023-01-11T07:04:19.871Z,13.57
2023-01-11T07:06:47.582Z,8.70
2023-01-11T07:09:15.435Z,17.67
2023-01-11T07:11:43.335Z,16.80
2023-01-11T07:14:15.145Z,10.73
2023-01-11T07:16:43.063Z,11.83
2023-01-11T07:19:10.881Z,14.00
2023-01-11T07:21:38.747Z,15.60
2023-01-11T07:24:07.054Z,15.20
2023-01-11T07:26:41.080Z,15.40
2023-01-11T07:29:09.118Z,13.33
2023-01-11T07:31:38.618Z,14.73
2023-01-11T07:34:06.398Z,12.68
2023-01-11T07:36:39.478Z,15.27
2023-01-11T07:39:07.552Z,12.87
2023-01-11T07:41:52.700Z,16.17
2023-01-11T07:44:20.634Z,12.10
2023-01-11T07:46:49.899Z,13.50
2023-01-11T07:49:17.875Z,13.70
2023-01-11T07:51:45.746Z,14.40
2023-01-11T07:54:13.465Z,13.47
2023-01-11T07:56:41.246Z,13.47
2023-01-11T07:59:10.051Z,14.03
2023-01-11T08:01:37.995Z,16.50
2023-01-11T08:04:08.635Z,9.90
2023-01-11T08:06:36.508Z,11.20
2023-01-11T08:09:04.462Z,9.77
2023-01-11T08:11:49.584Z,8.73
2023-01-11T08:14:35.179Z,12.57
2023-01-11T08:17:03.441Z,22.83
2023-01-11T08:19:32.621Z,16.90
2023-01-11T08:22:00.342Z,11.77
2023-01-11T08:24:28.140Z,7.73
2023-01-11T08:26:56.247Z,7.77
2023-01-11T08:29:24.171Z,8.70
2023-01-11T08:31:52.230Z,9.20
2023-01-11T08:34:20.224Z,8.47
2023-01-11T08:36:49.317Z,7.53
2023-01-11T08:39:17.202Z,8.70
2023-01-11T08:41:45.790Z,7.30
2023-01-11T08:44:14.982Z,8.50
2023-01-11T08:46:43.184Z,6.43
2023-01-11T08:49:12.353Z,7.10
2023-01-11T08:51:40.417Z,4.40
2023-01-11T08:54:13.291Z,3.43
2023-01-11T08:56:41.332Z,7.67
2023-01-11T08:59:11.209Z,4.27
2023-01-11T09:01:39.092Z,7.07
2023-01-11T09:04:23.132Z,4.57
2023-01-11T09:06:51.596Z,5.37
2023-01-11T09:09:20.891Z,4.20
2023-01-11T09:11:58.968Z,4.60
2023-01-11T09:14:28.759Z,5.33
2023-01-11T09:16:57.471Z,10.82
2023-01-11T09:19:25.627Z,11.00
2023-01-11T09:21:56.783Z,5.43
2023-01-11T09:24:25.893Z,11.67
2023-01-11T09:26:53.876Z,6.43
2023-01-11T09:29:21.856Z,6.50
2023-01-11T09:31:49.664Z,7.87
2023-01-11T09:34:17.903Z,3.87
2023-01-11T09:36:48.670Z,4.13
2023-01-11T09:39:18.901Z,6.80
2023-01-11T09:42:16.465Z,6.40
2023-01-11T09:44:51.431Z,4.90
2023-01-11T09:47:31.631Z,10.00
2023-01-11T09:50:03.765Z,10.75
2023-01-11T09:52:39.557Z,11.73
2023-01-11T09:55:12.543Z,4.90
2023-01-11T09:57:54.308Z,9.57
2023-01-11T10:00:29.251Z,5.50
2023-01-11T10:03:17.188Z,4.33
2023-01-11T10:05:59.657Z,6.17
2023-01-11T10:18:22.037Z,5.40
2023-01-11T10:18:28.164Z,5.20
2023-01-11T10:20:46.626Z,5.97
2023-01-11T10:23:21.643Z,7.47
2023-01-11T10:25:51.785Z,6.07
2023-01-11T10:28:27.122Z,6.57
2023-01-11T10:31:11.303Z,8.27
2023-01-11T10:34:06.100Z,9.67
2023-01-11T10:36:55.491Z,7.83
2023-01-11T10:39:50.703Z,8.10
2023-01-11T10:42:22.596Z,8.33
2023-01-11T10:45:00.197Z,7.23
2023-01-11T10:47:34.642Z,6.17
2023-01-11T10:50:14.664Z,9.67
2023-01-11T10:52:48.069Z,6.63
2023-01-11T10:55:21.763Z,5.33
2023-01-11T10:58:03.422Z,7.80
2023-01-11T11:00:40.422Z,9.97
2023-01-11T11:03:24.354Z,12.10
2023-01-11T11:06:01.837Z,9.03
2023-01-11T11:08:38.755Z,9.07
2023-01-11T11:11:12.901Z,9.50
2023-01-11T11:13:51.254Z,10.70
2023-01-11T11:16:36.998Z,9.40
2023-01-11T11:19:06.227Z,9.83
2023-01-11T11:21:38.525Z,8.43
2023-01-11T11:24:09.411Z,6.60
2023-01-11T11:26:41.736Z,9.83
2023-01-11T11:29:11.895Z,7.47
2023-01-11T11:31:47.260Z,12.15
2023-01-11T11:34:18.633Z,9.93
2023-01-11T11:36:49.034Z,9.97
2023-01-11T11:41:50.315Z,8.27
2023-01-11T11:44:20.964Z,8.80
2023-01-11T11:46:59.116Z,7.80
2023-01-11T11:49:29.124Z,8.17
2023-01-11T11:51:59.192Z,8.90
2023-01-11T11:54:30.762Z,8.63
2023-01-11T11:57:00.041Z,10.97
2023-01-11T11:59:32.872Z,9.73
2023-01-11T12:02:04.356Z,7.60
2023-01-11T12:04:42.814Z,11.33
2023-01-11T12:07:16.043Z,15.87
2023-01-11T12:09:48.263Z,9.53
2023-01-11T12:12:18.900Z,12.07
2023-01-11T12:15:09.891Z,6.70
2023-01-11T12:17:38.280Z,10.43
2023-01-11T12:20:29.334Z,11.07
2023-01-11T12:23:18.246Z,10.47
2023-01-11T12:26:22.965Z,7.80
2023-01-11T12:29:29.587Z,6.37
2023-01-11T12:32:21.375Z,7.57
2023-01-11T12:35:02.712Z,15.03
2023-01-11T12:37:52.959Z,7.23
2023-01-11T12:40:31.681Z,9.52
2023-01-11T12:43:21.325Z,11.43
2023-01-11T12:45:54.585Z,7.88
2023-01-11T12:48:50.325Z,5.60
2023-01-11T12:51:44.236Z,10.33
2023-01-11T12:54:32.691Z,11.87
2023-01-11T12:57:13.171Z,11.97
2023-01-11T13:02:48.517Z,4.67
2023-01-11T13:05:25.892Z,6.90
2023-01-11T13:08:05.393Z,6.93
2023-01-11T13:10:48.422Z,8.07
2023-01-11T13:13:21.517Z,7.07
2023-01-11T13:15:56.767Z,10.40
2023-01-11T13:18:34.579Z,6.83
2023-01-11T13:21:12.349Z,6.90
2023-01-11T13:23:45.563Z,9.17
2023-01-11T13:26:24.891Z,5.97
2023-01-11T13:28:59.049Z,5.67
2023-01-11T13:31:27.863Z,5.10
2023-01-11T13:34:02.266Z,4.97
2023-01-11T13:36:36.824Z,7.43
2023-01-11T13:39:12.958Z,6.67
2023-01-11T13:41:47.510Z,8.17
2023-01-11T13:44:22.396Z,6.00
2023-01-11T13:47:00.965Z,4.47
2023-01-11T13:49:51.210Z,7.33
2023-01-11T13:52:22.405Z,8.07
2023-01-11T13:54:59.342Z,4.80
2023-01-11T13:57:37.516Z,6.67
2023-01-11T14:00:16.316Z,5.00
2023-01-11T14:02:50.752Z,5.77
2023-01-11T14:05:21.380Z,8.20
2023-01-11T14:08:03.822Z,5.37
2023-01-11T14:10:46.245Z,6.37
2023-01-11T14:13:50.926Z,5.33
2023-01-11T14:16:27.437Z,7.63
2023-01-11T14:19:04.773Z,6.23
2023-01-11T14:21:39.275Z,5.00
2023-01-11T14:24:10.117Z,7.83
2023-01-11T14:27:11.453Z,5.23
2023-01-11T14:30:14.171Z,4.87
2023-01-11T14:33:03.295Z,4.93
2023-01-11T14:35:47.124Z,3.63
2023-01-11T14:38:37.120Z,22.13
2023-01-11T14:41:32.105Z,5.18
2023-01-11T14:44:14.477Z,28.23
2023-01-11T14:47:14.519Z,5.57
2023-01-11T14:50:03.416Z,10.35
2023-01-11T14:52:40.110Z,9.33
2023-01-11T14:55:17.380Z,5.07
2023-01-11T14:58:00.306Z,4.90
2023-01-11T15:01:11.276Z,4.67
2023-01-11T15:03:50.517Z,4.03
2023-01-11T15:06:21.472Z,3.33
2023-01-11T15:08:52.216Z,5.03
2023-01-11T15:11:35.839Z,5.80
2023-01-11T15:14:08.426Z,6.33
2023-01-11T15:16:56.865Z,6.23
2023-01-11T15:19:30.445Z,4.13
2023-01-11T15:22:01.676Z,7.37
2023-01-11T15:24:31.855Z,7.72
2023-01-11T15:27:01.875Z,4.95
2023-01-11T15:29:32.400Z,7.03
2023-01-11T15:34:50.238Z,7.53
2023-01-11T15:37:37.743Z,3.75
2023-01-11T15:40:15.143Z,3.83
2023-01-11T15:43:14.302Z,3.33
2023-01-11T15:46:27.460Z,6.13
2023-01-11T15:49:34.035Z,5.10
2023-01-11T15:52:26.671Z,6.27
2023-01-11T15:55:24.512Z,4.53
2023-01-11T15:58:19.746Z,4.90
2023-01-11T16:01:04.562Z,5.40
2023-01-11T16:03:54.285Z,6.77
2023-01-11T16:06:33.954Z,5.00
2023-01-11T16:09:23.079Z,5.47
2023-01-11T16:12:06.363Z,5.67
2023-01-11T16:14:57.215Z,8.90
2023-01-11T16:17:26.788Z,7.67
2023-01-11T16:19:57.066Z,6.03
2023-01-11T16:22:28.622Z,4.18
2023-01-11T16:25:01.536Z,5.50
2023-01-11T16:27:33.109Z,2.87
2023-01-11T16:30:01.668Z,3.53
2023-01-11T16:32:32.888Z,8.43
2023-01-11T16:35:02.161Z,13.90
2023-01-11T16:37:34.454Z,10.10
2023-01-11T16:40:09.577Z,25.40
2023-01-11T16:42:43.390Z,15.00
2023-01-11T16:45:15.912Z,9.97
2023-01-11T16:47:43.714Z,4.93
2023-01-11T16:50:20.001Z,6.33
2023-01-11T16:52:50.321Z,6.47
2023-01-11T16:55:29.717Z,4.30
2023-01-11T16:58:01.211Z,5.20
2023-01-11T17:00:38.008Z,7.23
2023-01-11T17:03:18.491Z,8.07
2023-01-11T17:05:55.599Z,5.93
2023-01-11T17:08:29.682Z,7.27
2023-01-11T17:11:02.295Z,8.73
2023-01-11T17:13:56.063Z,4.63
2023-01-11T17:16:28.603Z,6.80
2023-01-11T17:18:59.551Z,5.57
2023-01-11T17:21:30.091Z,6.00
2023-01-11T17:24:01.314Z,6.43
2023-01-11T17:26:36.384Z,6.90
2023-01-11T17:29:05.796Z,5.00
2023-01-11T17:31:36.904Z,4.90
2023-01-11T17:34:08.626Z,3.07
2023-01-11T17:36:37.591Z,7.53
2023-01-11T17:39:06.817Z,2.30
2023-01-11T17:41:54.473Z,3.90
2023-01-11T17:44:42.179Z,7.90
2023-01-11T17:47:13.381Z,5.30
2023-01-11T17:49:41.471Z,9.60
2023-01-11T17:52:11.799Z,8.13
2023-01-11T17:54:39.686Z,7.45
2023-01-11T17:57:10.724Z,6.03
2023-01-11T17:59:38.469Z,10.07
2023-01-11T18:02:13.675Z,8.30
2023-01-11T18:04:42.171Z,9.00
2023-01-11T18:07:16.770Z,11.03
2023-01-11T18:09:46.977Z,7.00
2023-01-11T18:12:19.606Z,8.55
2023-01-11T18:14:52.093Z,13.10
2023-01-11T18:17:36.098Z,7.37
2023-01-11T18:20:25.235Z,7.50
2023-01-11T18:22:59.805Z,8.37
2023-01-11T18:25:29.026Z,8.70
2023-01-11T18:28:26.478Z,10.83
2023-01-11T18:30:57.728Z,8.13
2023-01-11T18:33:27.853Z,9.43
2023-01-11T18:35:58.712Z,8.32
2023-01-11T18:38:29.231Z,17.93
2023-01-11T18:40:59.228Z,15.30
2023-01-11T18:43:30.756Z,14.52
2023-01-11T18:45:58.631Z,8.83
2023-01-11T18:48:26.416Z,13.20
2023-01-11T18:50:54.703Z,10.77
2023-01-11T18:53:23.721Z,11.30
2023-01-11T18:55:51.542Z,12.50
2023-01-11T18:58:19.450Z,17.33
2023-01-11T19:00:48.621Z,14.17
2023-01-11T19:03:16.424Z,12.27
2023-01-11T19:05:44.496Z,17.43
2023-01-11T19:08:12.270Z,11.53
2023-01-11T19:10:40.013Z,15.53
2023-01-11T19:13:08.026Z,12.70
2023-01-11T19:15:36.061Z,14.90
2023-01-11T19:18:05.431Z,16.20
2023-01-11T19:20:33.405Z,11.73
2023-01-11T19:23:01.253Z,12.80
2023-01-11T19:25:29.083Z,11.80
2023-01-11T19:27:56.880Z,14.60
2023-01-11T19:30:24.700Z,13.20
2023-01-11T19:32:54.406Z,15.00
2023-01-11T19:35:24.059Z,18.50
2023-01-11T19:37:52.502Z,15.15
2023-01-11T19:40:21.368Z,13.33
2023-01-11T19:42:52.483Z,13.23
2023-01-11T19:45:20.590Z,14.17
2023-01-11T19:47:48.350Z,14.60
2023-01-11T19:50:17.733Z,12.77
2023-01-11T19:52:47.166Z,10.93
2023-01-11T19:55:14.915Z,10.33
2023-01-11T19:57:42.707Z,14.90
2023-01-11T20:00:14.245Z,10.50
2023-01-11T20:02:42.336Z,18.40
2023-01-11T20:05:10.728Z,15.07
2023-01-11T20:07:38.645Z,14.10
2023-01-11T20:10:08.279Z,14.73
2023-01-11T20:12:36.131Z,19.50
2023-01-11T20:15:04.341Z,14.07
2023-01-11T20:17:33.032Z,18.53
2023-01-11T20:20:00.861Z,9.23
2023-01-11T20:22:28.863Z,13.53
2023-01-11T20:24:57.032Z,14.73
2023-01-11T20:27:26.345Z,13.63
2023-01-11T20:29:54.320Z,12.97
2023-01-11T20:32:40.444Z,15.17
2023-01-11T20:35:10.752Z,18.47
2023-01-11T20:37:38.549Z,20.57
2023-01-11T20:40:07.330Z,19.10
2023-01-11T20:42:36.753Z,49.73
2023-01-11T20:45:05.007Z,23.37
2023-01-11T20:47:32.839Z,34.00
2023-01-11T20:50:00.914Z,27.67
2023-01-11T20:52:28.717Z,38.67
2023-01-11T20:54:56.409Z,20.53
2023-01-11T20:57:24.395Z,15.77
2023-01-11T20:59:54.535Z,18.23
2023-01-11T21:02:22.311Z,13.68
2023-01-11T21:04:50.221Z,19.40
2023-01-11T21:07:17.984Z,14.80
2023-01-11T21:09:45.804Z,17.00
2023-01-11T21:12:13.781Z,30.73
2023-01-11T21:14:41.514Z,17.67
2023-01-11T21:17:10.754Z,20.47
2023-01-11T21:19:38.618Z,15.30
2023-01-11T21:22:06.397Z,20.93
2023-01-11T21:24:34.202Z,20.93
2023-01-11T21:27:02.130Z,15.93
2023-01-11T21:29:29.955Z,19.23
2023-01-11T21:31:57.791Z,15.30
2023-01-11T21:34:26.985Z,13.57
2023-01-11T21:36:54.759Z,18.03
2023-01-11T21:39:22.587Z,24.70
2023-01-11T21:41:57.656Z,22.97
2023-01-11T21:44:30.709Z,16.97
2023-01-11T21:46:59.293Z,19.47
2023-01-11T21:49:28.474Z,16.83
2023-01-11T21:51:56.238Z,23.57
2023-01-11T21:54:24.334Z,22.57
2023-01-11T21:56:52.599Z,19.03
2023-01-11T21:59:21.425Z,20.47
2023-01-11T22:01:49.966Z,17.00
2023-01-11T22:04:20.443Z,20.17
2023-01-11T22:09:23.388Z,18.20
2023-01-11T22:11:51.214Z,26.63
2023-01-11T22:14:19.041Z,28.47
2023-01-11T22:16:47.093Z,22.73
2023-01-11T22:19:15.506Z,19.17
2023-01-11T22:21:43.746Z,24.50
2023-01-11T22:24:13.275Z,31.00
2023-01-11T22:26:41.582Z,19.58
2023-01-11T22:29:15.154Z,32.60
2023-01-11T22:31:45.966Z,23.33
2023-01-11T22:34:14.790Z,38.40
2023-01-11T22:36:43.340Z,21.00
2023-01-11T22:39:13.308Z,16.10
2023-01-11T22:41:41.245Z,16.42
2023-01-11T22:44:09.512Z,18.77
2023-01-11T22:46:37.519Z,15.47
2023-01-11T22:49:06.118Z,19.00
2023-01-11T22:51:34.658Z,17.43
2023-01-11T22:54:02.483Z,16.37
2023-01-11T22:56:31.796Z,19.30
2023-01-11T22:59:00.113Z,14.57
2023-01-11T23:01:29.833Z,18.63
2023-01-11T23:03:58.692Z,16.63
2023-01-11T23:06:28.443Z,19.90
2023-01-11T23:08:56.786Z,14.00
2023-01-11T23:11:45.786Z,18.50
2023-01-11T23:14:16.676Z,22.57
2023-01-11T23:16:44.915Z,23.30
2023-01-11T23:19:14.270Z,19.93
2023-01-11T23:21:42.654Z,18.87
2023-01-11T23:24:11.864Z,19.53
2023-01-11T23:26:40.465Z,22.23
2023-01-11T23:29:08.618Z,22.23
2023-01-11T23:31:38.766Z,14.17
2023-01-11T23:34:08.628Z,20.27
2023-01-11T23:36:38.735Z,16.23
2023-01-11T23:39:07.385Z,23.02
2023-01-11T23:41:52.982Z,22.07
2023-01-11T23:44:22.695Z,18.93
2023-01-11T23:47:09.908Z,20.73
2023-01-11T23:49:37.972Z,21.63
2023-01-11T23:52:06.453Z,20.17
2023-01-11T23:54:34.986Z,23.97
2023-01-11T23:57:03.885Z,24.17
2023-01-11T23:59:32.038Z,21.07
